sensor_id;sensor_type;location;lat;lon;timestamp;pressure;altitude;pressure_sealevel;temperature
18713;BMP280;9485;49.386;8.674;2023-05-09T00:03:26;100678.06;;;18.65
18713;BMP280;9485;49.386;8.674;2023-05-09T00:08:48;100670.13;;;18.58
18713;BMP280;9485;49.386;8.674;2023-05-09T00:14:10;100642.13;;;18.38
18713;BMP280;9485;49.386;8.674;2023-05-09T00:19:31;100658.41;;;18.43
18713;BMP280;9485;49.386;8.674;2023-05-09T00:24:53;100652.56;;;18.35
18713;BMP280;9485;49.386;8.674;2023-05-09T00:30:14;100648.25;;;18.29
18713;BMP280;9485;49.386;8.674;2023-05-09T00:35:35;100643.41;;;18.24
18713;BMP280;9485;49.386;8.674;2023-05-09T00:40:57;100649.72;;;18.17
18713;BMP280;9485;49.386;8.674;2023-05-09T00:46:17;100635.28;;;18.09
18713;BMP280;9485;49.386;8.674;2023-05-09T00:51:40;100626.25;;;18.06
18713;BMP280;9485;49.386;8.674;2023-05-09T00:57:02;100632.84;;;18.01
18713;BMP280;9485;49.386;8.674;2023-05-09T01:02:23;100634.34;;;18.02
18713;BMP280;9485;49.386;8.674;2023-05-09T01:07:58;100634.59;;;18.04
18713;BMP280;9485;49.386;8.674;2023-05-09T01:13:30;100636.81;;;18.10
18713;BMP280;9485;49.386;8.674;2023-05-09T01:19:01;100622.47;;;18.16
18713;BMP280;9485;49.386;8.674;2023-05-09T01:24:56;100619.53;;;18.21
18713;BMP280;9485;49.386;8.674;2023-05-09T01:30:25;100622.09;;;18.25
18713;BMP280;9485;49.386;8.674;2023-05-09T01:35:53;100601.53;;;18.26
18713;BMP280;9485;49.386;8.674;2023-05-09T01:41:18;100587.06;;;18.19
18713;BMP280;9485;49.386;8.674;2023-05-09T01:46:43;100598.09;;;18.28
18713;BMP280;9485;49.386;8.674;2023-05-09T01:52:08;100598.66;;;18.26
18713;BMP280;9485;49.386;8.674;2023-05-09T01:57:29;100607.00;;;18.24
18713;BMP280;9485;49.386;8.674;2023-05-09T02:02:52;100606.28;;;18.18
18713;BMP280;9485;49.386;8.674;2023-05-09T02:08:15;100599.59;;;18.16
18713;BMP280;9485;49.386;8.674;2023-05-09T02:13:39;100597.06;;;18.12
18713;BMP280;9485;49.386;8.674;2023-05-09T02:19:02;100583.84;;;18.09
18713;BMP280;9485;49.386;8.674;2023-05-09T02:24:23;100579.75;;;18.05
18713;BMP280;9485;49.386;8.674;2023-05-09T02:29:47;100598.81;;;18.15
18713;BMP280;9485;49.386;8.674;2023-05-09T02:35:11;100582.91;;;18.20
18713;BMP280;9485;49.386;8.674;2023-05-09T02:40:33;100590.84;;;18.27
18713;BMP280;9485;49.386;8.674;2023-05-09T02:45:53;100586.81;;;18.35
18713;BMP280;9485;49.386;8.674;2023-05-09T02:51:15;100584.84;;;18.43
18713;BMP280;9485;49.386;8.674;2023-05-09T02:56:36;100575.41;;;18.48
18713;BMP280;9485;49.386;8.674;2023-05-09T03:01:57;100576.84;;;18.55
18713;BMP280;9485;49.386;8.674;2023-05-09T03:07:19;100579.81;;;18.62
18713;BMP280;9485;49.386;8.674;2023-05-09T03:12:39;100569.06;;;18.68
18713;BMP280;9485;49.386;8.674;2023-05-09T03:18:02;100555.19;;;18.72
18713;BMP280;9485;49.386;8.674;2023-05-09T03:23:24;100554.84;;;18.76
18713;BMP280;9485;49.386;8.674;2023-05-09T03:28:45;100550.13;;;18.78
18713;BMP280;9485;49.386;8.674;2023-05-09T03:34:07;100546.16;;;18.81
18713;BMP280;9485;49.386;8.674;2023-05-09T03:39:34;100545.06;;;18.84
18713;BMP280;9485;49.386;8.674;2023-05-09T03:44:55;100549.69;;;18.87
18713;BMP280;9485;49.386;8.674;2023-05-09T03:50:16;100542.88;;;18.90
18713;BMP280;9485;49.386;8.674;2023-05-09T03:55:38;100555.53;;;18.94
18713;BMP280;9485;49.386;8.674;2023-05-09T04:00:59;100548.69;;;18.97
18713;BMP280;9485;49.386;8.674;2023-05-09T04:06:22;100538.78;;;18.98
18713;BMP280;9485;49.386;8.674;2023-05-09T04:11:44;100546.81;;;19.00
18713;BMP280;9485;49.386;8.674;2023-05-09T04:17:06;100544.19;;;19.02
18713;BMP280;9485;49.386;8.674;2023-05-09T04:22:27;100536.34;;;19.02
18713;BMP280;9485;49.386;8.674;2023-05-09T04:27:50;100543.63;;;19.03
18713;BMP280;9485;49.386;8.674;2023-05-09T04:33:11;100538.13;;;19.05
18713;BMP280;9485;49.386;8.674;2023-05-09T04:38:32;100538.69;;;19.04
18713;BMP280;9485;49.386;8.674;2023-05-09T04:43:54;100540.22;;;19.05
18713;BMP280;9485;49.386;8.674;2023-05-09T04:49:17;100545.59;;;19.08
18713;BMP280;9485;49.386;8.674;2023-05-09T04:54:38;100537.81;;;19.09
18713;BMP280;9485;49.386;8.674;2023-05-09T05:00:01;100542.44;;;19.12
18713;BMP280;9485;49.386;8.674;2023-05-09T05:05:22;100531.75;;;19.12
18713;BMP280;9485;49.386;8.674;2023-05-09T05:10:44;100528.56;;;19.16
18713;BMP280;9485;49.386;8.674;2023-05-09T05:16:09;100524.44;;;19.24
18713;BMP280;9485;49.386;8.674;2023-05-09T05:21:30;100529.50;;;19.31
18713;BMP280;9485;49.386;8.674;2023-05-09T05:26:51;100525.97;;;19.38
18713;BMP280;9485;49.386;8.674;2023-05-09T05:32:13;100525.19;;;19.38
18713;BMP280;9485;49.386;8.674;2023-05-09T05:37:34;100523.44;;;19.35
18713;BMP280;9485;49.386;8.674;2023-05-09T05:42:55;100514.97;;;19.42
18713;BMP280;9485;49.386;8.674;2023-05-09T05:48:18;100507.97;;;19.51
18713;BMP280;9485;49.386;8.674;2023-05-09T05:53:39;100515.13;;;19.57
18713;BMP280;9485;49.386;8.674;2023-05-09T05:59:01;100506.03;;;19.66
18713;BMP280;9485;49.386;8.674;2023-05-09T06:04:24;100506.13;;;19.73
18713;BMP280;9485;49.386;8.674;2023-05-09T06:09:44;100514.22;;;19.82
18713;BMP280;9485;49.386;8.674;2023-05-09T06:15:06;100504.53;;;19.85
18713;BMP280;9485;49.386;8.674;2023-05-09T06:20:32;100498.34;;;19.94
18713;BMP280;9485;49.386;8.674;2023-05-09T06:25:54;100497.28;;;20.05
18713;BMP280;9485;49.386;8.674;2023-05-09T06:31:14;100495.66;;;20.17
18713;BMP280;9485;49.386;8.674;2023-05-09T06:36:36;100491.16;;;20.29
18713;BMP280;9485;49.386;8.674;2023-05-09T06:41:57;100490.44;;;20.36
18713;BMP280;9485;49.386;8.674;2023-05-09T06:47:23;100487.41;;;20.34
18713;BMP280;9485;49.386;8.674;2023-05-09T06:52:45;100493.84;;;20.27
18713;BMP280;9485;49.386;8.674;2023-05-09T06:58:06;100483.50;;;20.24
18713;BMP280;9485;49.386;8.674;2023-05-09T07:03:27;100471.81;;;20.22
18713;BMP280;9485;49.386;8.674;2023-05-09T07:08:49;100473.09;;;20.41
18713;BMP280;9485;49.386;8.674;2023-05-09T07:14:09;100470.56;;;20.58
18713;BMP280;9485;49.386;8.674;2023-05-09T07:19:30;100471.38;;;20.66
18713;BMP280;9485;49.386;8.674;2023-05-09T07:30:13;100443.03;;;20.90
18713;BMP280;9485;49.386;8.674;2023-05-09T07:35:33;100430.53;;;20.88
18713;BMP280;9485;49.386;8.674;2023-05-09T07:40:55;100432.06;;;20.81
18713;BMP280;9485;49.386;8.674;2023-05-09T07:46:15;100432.22;;;20.76
18713;BMP280;9485;49.386;8.674;2023-05-09T07:51:36;100426.91;;;20.80
18713;BMP280;9485;49.386;8.674;2023-05-09T07:56:58;100415.28;;;20.93
18713;BMP280;9485;49.386;8.674;2023-05-09T08:02:19;100399.66;;;21.23
18713;BMP280;9485;49.386;8.674;2023-05-09T08:07:39;100407.25;;;21.56
18713;BMP280;9485;49.386;8.674;2023-05-09T08:13:02;100400.94;;;21.88
18713;BMP280;9485;49.386;8.674;2023-05-09T08:18:22;100388.25;;;22.05
18713;BMP280;9485;49.386;8.674;2023-05-09T08:23:43;100375.97;;;22.12
18713;BMP280;9485;49.386;8.674;2023-05-09T08:29:04;100363.66;;;22.27
18713;BMP280;9485;49.386;8.674;2023-05-09T08:34:25;100376.75;;;22.35
18713;BMP280;9485;49.386;8.674;2023-05-09T08:39:46;100384.00;;;22.29
18713;BMP280;9485;49.386;8.674;2023-05-09T08:45:09;100363.91;;;22.14
18713;BMP280;9485;49.386;8.674;2023-05-09T08:50:30;100363.16;;;22.13
18713;BMP280;9485;49.386;8.674;2023-05-09T08:55:51;100365.63;;;22.17
18713;BMP280;9485;49.386;8.674;2023-05-09T09:01:13;100356.44;;;22.11
18713;BMP280;9485;49.386;8.674;2023-05-09T09:06:35;100350.09;;;22.12
18713;BMP280;9485;49.386;8.674;2023-05-09T09:11:57;100338.22;;;22.16
18713;BMP280;9485;49.386;8.674;2023-05-09T09:17:23;100337.03;;;22.41
18713;BMP280;9485;49.386;8.674;2023-05-09T09:22:48;100318.66;;;22.68
18713;BMP280;9485;49.386;8.674;2023-05-09T09:28:11;100313.94;;;22.95
18713;BMP280;9485;49.386;8.674;2023-05-09T09:33:35;100307.13;;;23.40
18713;BMP280;9485;49.386;8.674;2023-05-09T09:38:58;100298.28;;;23.86
18713;BMP280;9485;49.386;8.674;2023-05-09T09:44:21;100295.34;;;24.27
18713;BMP280;9485;49.386;8.674;2023-05-09T09:49:45;100281.47;;;24.60
18713;BMP280;9485;49.386;8.674;2023-05-09T09:55:07;100277.88;;;24.86
18713;BMP280;9485;49.386;8.674;2023-05-09T10:00:28;100266.13;;;24.84
18713;BMP280;9485;49.386;8.674;2023-05-09T10:06:00;100253.00;;;25.00
18713;BMP280;9485;49.386;8.674;2023-05-09T10:11:21;100259.50;;;25.17
18713;BMP280;9485;49.386;8.674;2023-05-09T10:16:43;100243.38;;;25.23
18713;BMP280;9485;49.386;8.674;2023-05-09T10:22:09;100243.91;;;25.39
18713;BMP280;9485;49.386;8.674;2023-05-09T10:27:35;100226.44;;;25.56
18713;BMP280;9485;49.386;8.674;2023-05-09T10:33:02;100217.47;;;25.52
18713;BMP280;9485;49.386;8.674;2023-05-09T10:38:24;100202.28;;;25.61
18713;BMP280;9485;49.386;8.674;2023-05-09T10:43:46;100189.25;;;25.79
18713;BMP280;9485;49.386;8.674;2023-05-09T10:49:07;100177.22;;;26.01
18713;BMP280;9485;49.386;8.674;2023-05-09T10:54:30;100167.44;;;26.34
18713;BMP280;9485;49.386;8.674;2023-05-09T10:59:52;100163.78;;;26.43
18713;BMP280;9485;49.386;8.674;2023-05-09T11:05:16;100155.06;;;26.53
18713;BMP280;9485;49.386;8.674;2023-05-09T11:10:42;100137.09;;;26.54
18713;BMP280;9485;49.386;8.674;2023-05-09T11:16:10;100131.63;;;26.30
18713;BMP280;9485;49.386;8.674;2023-05-09T11:21:34;100122.34;;;26.22
18713;BMP280;9485;49.386;8.674;2023-05-09T11:26:56;100110.66;;;26.10
18713;BMP280;9485;49.386;8.674;2023-05-09T11:32:19;100108.09;;;26.05
18713;BMP280;9485;49.386;8.674;2023-05-09T11:37:48;100104.69;;;26.18
18713;BMP280;9485;49.386;8.674;2023-05-09T11:43:11;100091.72;;;26.38
18713;BMP280;9485;49.386;8.674;2023-05-09T11:48:37;100090.00;;;26.54
18713;BMP280;9485;49.386;8.674;2023-05-09T11:54:07;100080.16;;;26.28
18713;BMP280;9485;49.386;8.674;2023-05-09T11:59:30;100073.81;;;26.11
18713;BMP280;9485;49.386;8.674;2023-05-09T12:04:50;100060.72;;;26.00
18713;BMP280;9485;49.386;8.674;2023-05-09T12:10:19;100056.00;;;26.05
18713;BMP280;9485;49.386;8.674;2023-05-09T12:15:41;100038.97;;;25.99
18713;BMP280;9485;49.386;8.674;2023-05-09T12:21:02;100029.25;;;25.85
18713;BMP280;9485;49.386;8.674;2023-05-09T12:26:26;100018.59;;;25.79
18713;BMP280;9485;49.386;8.674;2023-05-09T12:31:48;99997.28;;;25.83
18713;BMP280;9485;49.386;8.674;2023-05-09T12:37:14;99998.63;;;25.92
18713;BMP280;9485;49.386;8.674;2023-05-09T12:42:38;99981.88;;;25.90
18713;BMP280;9485;49.386;8.674;2023-05-09T12:47:59;99978.25;;;25.71
18713;BMP280;9485;49.386;8.674;2023-05-09T12:53:25;99967.00;;;25.75
18713;BMP280;9485;49.386;8.674;2023-05-09T12:58:53;99953.41;;;25.87
18713;BMP280;9485;49.386;8.674;2023-05-09T13:04:14;99960.16;;;25.61
18713;BMP280;9485;49.386;8.674;2023-05-09T13:09:35;99962.50;;;25.25
18713;BMP280;9485;49.386;8.674;2023-05-09T13:14:59;99947.72;;;25.30
18713;BMP280;9485;49.386;8.674;2023-05-09T13:20:20;99948.69;;;25.91
18713;BMP280;9485;49.386;8.674;2023-05-09T13:25:41;99937.59;;;26.18
18713;BMP280;9485;49.386;8.674;2023-05-09T13:31:03;99922.59;;;26.41
18713;BMP280;9485;49.386;8.674;2023-05-09T13:36:25;99912.47;;;26.93
18713;BMP280;9485;49.386;8.674;2023-05-09T13:41:46;99900.59;;;27.42
18713;BMP280;9485;49.386;8.674;2023-05-09T13:47:08;99893.50;;;27.77
18713;BMP280;9485;49.386;8.674;2023-05-09T13:52:29;99877.41;;;27.42
18713;BMP280;9485;49.386;8.674;2023-05-09T13:57:50;99873.78;;;27.09
18713;BMP280;9485;49.386;8.674;2023-05-09T14:03:13;99859.38;;;27.00
18713;BMP280;9485;49.386;8.674;2023-05-09T14:08:34;99866.72;;;27.12
18713;BMP280;9485;49.386;8.674;2023-05-09T14:13:55;99852.91;;;27.22
18713;BMP280;9485;49.386;8.674;2023-05-09T14:19:17;99844.84;;;27.21
18713;BMP280;9485;49.386;8.674;2023-05-09T14:24:38;99830.16;;;27.07
18713;BMP280;9485;49.386;8.674;2023-05-09T14:29:59;99825.41;;;26.91
18713;BMP280;9485;49.386;8.674;2023-05-09T14:35:21;99826.44;;;26.63
18713;BMP280;9485;49.386;8.674;2023-05-09T14:40:42;99805.47;;;26.32
18713;BMP280;9485;49.386;8.674;2023-05-09T14:46:03;99801.66;;;26.09
18713;BMP280;9485;49.386;8.674;2023-05-09T14:51:26;99789.94;;;25.86
18713;BMP280;9485;49.386;8.674;2023-05-09T14:56:47;99788.03;;;25.70
18713;BMP280;9485;49.386;8.674;2023-05-09T15:02:08;99785.38;;;25.53
18713;BMP280;9485;49.386;8.674;2023-05-09T15:07:30;99772.94;;;25.41
18713;BMP280;9485;49.386;8.674;2023-05-09T15:12:51;99763.41;;;25.29
18713;BMP280;9485;49.386;8.674;2023-05-09T15:18:12;99763.28;;;25.17
18713;BMP280;9485;49.386;8.674;2023-05-09T15:23:36;99754.63;;;25.08
18713;BMP280;9485;49.386;8.674;2023-05-09T15:28:58;99748.75;;;24.87
18713;BMP280;9485;49.386;8.674;2023-05-09T15:34:19;99752.28;;;24.67
18713;BMP280;9485;49.386;8.674;2023-05-09T15:39:42;99745.94;;;24.49
18713;BMP280;9485;49.386;8.674;2023-05-09T15:45:05;99745.16;;;24.39
18713;BMP280;9485;49.386;8.674;2023-05-09T15:50:26;99738.94;;;24.33
18713;BMP280;9485;49.386;8.674;2023-05-09T15:55:49;99737.56;;;24.25
18713;BMP280;9485;49.386;8.674;2023-05-09T16:01:10;99734.84;;;24.18
18713;BMP280;9485;49.386;8.674;2023-05-09T16:06:33;99728.00;;;24.13
18713;BMP280;9485;49.386;8.674;2023-05-09T16:11:56;99723.00;;;24.14
18713;BMP280;9485;49.386;8.674;2023-05-09T16:17:16;99718.72;;;24.15
18713;BMP280;9485;49.386;8.674;2023-05-09T16:22:37;99720.72;;;24.12
18713;BMP280;9485;49.386;8.674;2023-05-09T16:28:01;99704.19;;;24.13
18713;BMP280;9485;49.386;8.674;2023-05-09T16:33:21;99707.06;;;24.13
18713;BMP280;9485;49.386;8.674;2023-05-09T16:38:42;99703.41;;;24.12
18713;BMP280;9485;49.386;8.674;2023-05-09T16:44:04;99688.53;;;24.06
18713;BMP280;9485;49.386;8.674;2023-05-09T16:49:26;99694.59;;;24.01
18713;BMP280;9485;49.386;8.674;2023-05-09T16:54:47;99689.28;;;23.88
18713;BMP280;9485;49.386;8.674;2023-05-09T17:00:11;99686.53;;;23.71
18713;BMP280;9485;49.386;8.674;2023-05-09T17:05:33;99682.09;;;23.60
18713;BMP280;9485;49.386;8.674;2023-05-09T17:10:55;99681.94;;;23.49
18713;BMP280;9485;49.386;8.674;2023-05-09T17:16:17;99677.66;;;23.41
18713;BMP280;9485;49.386;8.674;2023-05-09T17:21:39;99682.81;;;23.33
18713;BMP280;9485;49.386;8.674;2023-05-09T17:27:01;99681.84;;;23.21
18713;BMP280;9485;49.386;8.674;2023-05-09T17:32:23;99695.19;;;23.16
18713;BMP280;9485;49.386;8.674;2023-05-09T17:37:44;99692.69;;;23.03
18713;BMP280;9485;49.386;8.674;2023-05-09T17:43:05;99702.56;;;22.83
18713;BMP280;9485;49.386;8.674;2023-05-09T17:48:27;99713.31;;;22.57
18713;BMP280;9485;49.386;8.674;2023-05-09T17:53:48;99716.53;;;22.27
18713;BMP280;9485;49.386;8.674;2023-05-09T17:59:10;99723.78;;;22.01
18713;BMP280;9485;49.386;8.674;2023-05-09T18:04:32;99720.97;;;21.77
18713;BMP280;9485;49.386;8.674;2023-05-09T18:09:53;99737.13;;;21.48
18713;BMP280;9485;49.386;8.674;2023-05-09T18:15:14;99751.72;;;21.18
18713;BMP280;9485;49.386;8.674;2023-05-09T18:20:36;99758.25;;;20.87
18713;BMP280;9485;49.386;8.674;2023-05-09T18:25:56;99765.28;;;20.54
18713;BMP280;9485;49.386;8.674;2023-05-09T18:31:16;99756.59;;;20.30
18713;BMP280;9485;49.386;8.674;2023-05-09T18:36:38;99752.88;;;19.98
18713;BMP280;9485;49.386;8.674;2023-05-09T18:41:59;99758.59;;;19.75
18713;BMP280;9485;49.386;8.674;2023-05-09T18:47:19;99755.97;;;19.55
18713;BMP280;9485;49.386;8.674;2023-05-09T18:52:41;99749.69;;;19.49
18713;BMP280;9485;49.386;8.674;2023-05-09T18:58:05;99745.69;;;19.45
18713;BMP280;9485;49.386;8.674;2023-05-09T19:03:28;99748.53;;;19.30
18713;BMP280;9485;49.386;8.674;2023-05-09T19:08:49;99747.38;;;19.10
18713;BMP280;9485;49.386;8.674;2023-05-09T19:14:12;99751.34;;;18.92
18713;BMP280;9485;49.386;8.674;2023-05-09T19:19:32;99743.69;;;18.80
18713;BMP280;9485;49.386;8.674;2023-05-09T19:24:56;99749.78;;;18.77
18713;BMP280;9485;49.386;8.674;2023-05-09T19:30:17;99745.97;;;18.67
18713;BMP280;9485;49.386;8.674;2023-05-09T19:35:42;99740.19;;;18.59
18713;BMP280;9485;49.386;8.674;2023-05-09T19:41:04;99744.75;;;18.47
18713;BMP280;9485;49.386;8.674;2023-05-09T19:46:25;99747.56;;;18.40
18713;BMP280;9485;49.386;8.674;2023-05-09T19:51:45;99743.34;;;18.33
18713;BMP280;9485;49.386;8.674;2023-05-09T19:57:07;99749.25;;;18.28
18713;BMP280;9485;49.386;8.674;2023-05-09T20:02:28;99757.06;;;18.27
18713;BMP280;9485;49.386;8.674;2023-05-09T20:07:49;99758.59;;;18.28
18713;BMP280;9485;49.386;8.674;2023-05-09T20:13:11;99756.84;;;18.25
18713;BMP280;9485;49.386;8.674;2023-05-09T20:18:32;99757.44;;;18.24
18713;BMP280;9485;49.386;8.674;2023-05-09T20:23:53;99748.78;;;18.16
18713;BMP280;9485;49.386;8.674;2023-05-09T20:29:15;99755.22;;;18.09
18713;BMP280;9485;49.386;8.674;2023-05-09T20:34:35;99747.97;;;18.08
18713;BMP280;9485;49.386;8.674;2023-05-09T20:39:56;99748.75;;;18.09
18713;BMP280;9485;49.386;8.674;2023-05-09T20:45:18;99748.91;;;18.04
18713;BMP280;9485;49.386;8.674;2023-05-09T20:50:38;99749.84;;;17.99
18713;BMP280;9485;49.386;8.674;2023-05-09T20:55:59;99751.31;;;17.92
18713;BMP280;9485;49.386;8.674;2023-05-09T21:01:22;99738.94;;;17.90
18713;BMP280;9485;49.386;8.674;2023-05-09T21:06:42;99750.13;;;17.88
18713;BMP280;9485;49.386;8.674;2023-05-09T21:12:03;99746.69;;;17.82
18713;BMP280;9485;49.386;8.674;2023-05-09T21:17:25;99740.94;;;17.74
18713;BMP280;9485;49.386;8.674;2023-05-09T21:22:45;99746.22;;;17.70
18713;BMP280;9485;49.386;8.674;2023-05-09T21:28:06;99744.88;;;17.64
18713;BMP280;9485;49.386;8.674;2023-05-09T21:33:31;99738.72;;;17.60
18713;BMP280;9485;49.386;8.674;2023-05-09T21:38:51;99737.00;;;17.57
18713;BMP280;9485;49.386;8.674;2023-05-09T21:44:12;99736.03;;;17.54
18713;BMP280;9485;49.386;8.674;2023-05-09T21:49:34;99733.56;;;17.51
18713;BMP280;9485;49.386;8.674;2023-05-09T21:54:55;99727.63;;;17.49
18713;BMP280;9485;49.386;8.674;2023-05-09T22:00:17;99725.88;;;17.46
18713;BMP280;9485;49.386;8.674;2023-05-09T22:05:40;99715.03;;;17.44
18713;BMP280;9485;49.386;8.674;2023-05-09T22:11:00;99725.34;;;17.47
18713;BMP280;9485;49.386;8.674;2023-05-09T22:16:21;99726.53;;;17.52
18713;BMP280;9485;49.386;8.674;2023-05-09T22:21:43;99735.22;;;17.46
18713;BMP280;9485;49.386;8.674;2023-05-09T22:27:03;99742.13;;;17.51
18713;BMP280;9485;49.386;8.674;2023-05-09T22:32:24;99746.50;;;17.52
18713;BMP280;9485;49.386;8.674;2023-05-09T22:37:46;99751.78;;;17.48
18713;BMP280;9485;49.386;8.674;2023-05-09T22:43:06;99755.56;;;17.43
18713;BMP280;9485;49.386;8.674;2023-05-09T22:48:28;99755.13;;;17.39
18713;BMP280;9485;49.386;8.674;2023-05-09T22:53:50;99765.78;;;17.38
18713;BMP280;9485;49.386;8.674;2023-05-09T22:59:11;99768.25;;;17.34
18713;BMP280;9485;49.386;8.674;2023-05-09T23:04:31;99766.72;;;17.33
18713;BMP280;9485;49.386;8.674;2023-05-09T23:09:53;99761.34;;;17.30
18713;BMP280;9485;49.386;8.674;2023-05-09T23:15:14;99769.44;;;17.26
18713;BMP280;9485;49.386;8.674;2023-05-09T23:20:35;99778.56;;;17.25
18713;BMP280;9485;49.386;8.674;2023-05-09T23:25:57;99777.81;;;17.24
18713;BMP280;9485;49.386;8.674;2023-05-09T23:31:18;99775.09;;;17.19
18713;BMP280;9485;49.386;8.674;2023-05-09T23:36:39;99771.47;;;17.18
18713;BMP280;9485;49.386;8.674;2023-05-09T23:42:01;99773.91;;;17.14
18713;BMP280;9485;49.386;8.674;2023-05-09T23:47:22;99778.66;;;17.12
18713;BMP280;9485;49.386;8.674;2023-05-09T23:52:42;99773.06;;;17.06
18713;BMP280;9485;49.386;8.674;2023-05-09T23:58:04;99781.97;;;17.03
